Time;durP1;ratioP1;P1;durP2;ratioP2;P2;SDS_P1;SDS_P2;PMS_P1;PMS_P2;Temp;Humidity;BMP_temperature;BMP_pressure;BME280_temperature;BME280_humidity;BME280_pressure;Samples;Min_cycle;Max_cycle;Signal;HPM_P1;HPM_P2
2021/04/22 00:01:55;;;;;;;3.20;2.10;;;;;;;10.42;100.00;97883.25;5112054;28;20699;-73
2021/04/22 00:04:21;;;;;;;2.00;1.70;;;;;;;10.43;100.00;97887.63;5112043;28;20218;-73
2021/04/22 00:06:49;;;;;;;4.10;2.60;;;;;;;10.42;100.00;97889.56;5111851;28;20208;-73
2021/04/22 00:09:16;;;;;;;3.00;2.40;;;;;;;10.26;100.00;97883.09;5111502;28;20204;-73
2021/04/22 00:11:42;;;;;;;4.03;1.80;;;;;;;10.38;100.00;97885.91;5093424;28;20886;-73
2021/04/22 00:14:09;;;;;;;4.43;2.90;;;;;;;10.37;100.00;97883.47;5110980;28;20239;-73
2021/04/22 00:16:35;;;;;;;3.80;2.00;;;;;;;10.18;100.00;97882.03;5132134;27;20226;-73
2021/04/22 00:19:01;;;;;;;4.07;2.10;;;;;;;10.20;100.00;97887.22;5132140;27;20664;-73
2021/04/22 00:21:27;;;;;;;3.30;2.30;;;;;;;10.16;100.00;97878.03;5132202;27;20305;-73
2021/04/22 00:23:53;;;;;;;2.67;2.10;;;;;;;10.27;100.00;97881.16;5097026;27;20256;-73
2021/04/22 00:26:19;;;;;;;3.53;2.17;;;;;;;10.36;100.00;97887.38;5089357;28;20318;-74
2021/04/22 00:28:45;;;;;;;3.00;2.20;;;;;;;10.34;100.00;97892.44;5100660;27;20274;-74
2021/04/22 00:31:12;;;;;;;2.23;1.73;;;;;;;10.26;100.00;97887.78;5107604;28;20223;-74
2021/04/22 00:33:38;;;;;;;2.97;2.33;;;;;;;10.28;100.00;97888.25;5106417;28;20311;-73
2021/04/22 00:36:04;;;;;;;2.87;2.37;;;;;;;10.17;100.00;97883.19;5106715;28;20196;-73
2021/04/22 00:38:30;;;;;;;3.50;2.53;;;;;;;10.08;100.00;97881.63;5089292;28;20286;-73
2021/04/22 00:40:57;;;;;;;4.10;2.63;;;;;;;10.12;100.00;97880.66;5095286;27;20492;-74
2021/04/22 00:43:23;;;;;;;3.53;2.23;;;;;;;10.17;100.00;97882.38;5115112;27;20271;-73
2021/04/22 00:45:49;;;;;;;3.47;2.20;;;;;;;10.12;100.00;97877.09;5085081;27;20229;-74
2021/04/22 00:48:23;;;;;;;2.90;2.00;;;;;;;10.10;100.00;97880.19;5131760;27;20635;-73
2021/04/22 00:50:50;;;;;;;4.93;2.17;;;;;;;10.08;100.00;97885.22;5090901;28;20229;-73
2021/04/22 00:53:17;;;;;;;2.63;1.33;;;;;;;10.09;100.00;97884.09;5072674;28;20869;-73
2021/04/22 00:55:43;;;;;;;2.93;2.33;;;;;;;9.90;100.00;97881.03;5105335;28;20243;-73
2021/04/22 00:58:10;;;;;;;5.30;2.50;;;;;;;9.84;100.00;97882.38;5111079;28;20266;-73
2021/04/22 01:34:11;;;;;;;1.80;1.60;;;;;;;8.87;100.00;97902.19;5107928;27;20487;-73
2021/04/22 01:36:40;;;;;;;3.23;2.17;;;;;;;8.93;100.00;97898.13;5107724;28;20608;-73
2021/04/22 01:39:09;;;;;;;3.40;2.23;;;;;;;9.00;100.00;97907.47;5107079;28;20203;-72
2021/04/22 01:41:35;;;;;;;3.63;2.73;;;;;;;9.08;100.00;97905.81;5106127;28;20311;-73
2021/04/22 01:44:02;;;;;;;2.53;2.13;;;;;;;9.30;100.00;97894.50;5107789;28;20227;-73
2021/04/22 01:46:28;;;;;;;1.77;1.63;;;;;;;9.38;100.00;97896.38;5107608;28;20668;-73
2021/04/22 01:48:54;;;;;;;2.37;1.80;;;;;;;9.23;100.00;97898.91;5112005;28;20283;-73
2021/04/22 01:51:21;;;;;;;2.63;1.93;;;;;;;9.14;100.00;97897.03;5115360;27;20219;-73
2021/04/22 01:53:49;;;;;;;3.93;2.40;;;;;;;9.25;100.00;97900.22;5107441;28;20763;-72
2021/04/22 01:56:16;;;;;;;4.97;1.97;;;;;;;9.28;100.00;97893.22;5107498;28;20723;-73
2021/04/22 01:58:43;;;;;;;3.57;2.13;;;;;;;9.29;100.00;97894.84;5105899;28;20235;-73
2021/04/22 02:01:10;;;;;;;3.37;2.20;;;;;;;9.16;100.00;97891.16;5106222;28;20230;-72
2021/04/22 02:03:37;;;;;;;3.27;1.97;;;;;;;9.25;100.00;97902.16;5106256;28;20215;-72
2021/04/22 02:06:05;;;;;;;2.73;2.10;;;;;;;9.25;100.00;97905.72;5107119;28;20625;-72
2021/04/22 02:08:32;;;;;;;3.23;2.40;;;;;;;9.23;100.00;97899.72;5106130;28;20196;-72
2021/04/22 02:10:59;;;;;;;3.40;2.23;;;;;;;9.17;100.00;97901.06;5107108;28;20656;-73
2021/04/22 02:13:26;;;;;;;5.87;2.20;;;;;;;9.15;100.00;97897.84;5107054;28;20310;-73
2021/04/22 02:15:53;;;;;;;3.73;2.03;;;;;;;9.12;100.00;97904.81;5106868;28;20703;-73
2021/04/22 02:18:20;;;;;;;16.53;2.47;;;;;;;9.03;100.00;97900.50;5106875;28;20232;-73
2021/04/22 02:20:47;;;;;;;5.33;2.67;;;;;;;9.08;100.00;97903.88;5106689;28;20310;-73
2021/04/22 02:23:15;;;;;;;2.67;2.13;;;;;;;9.03;100.00;97901.28;5107222;28;20200;-73
2021/04/22 02:25:42;;;;;;;5.00;2.53;;;;;;;9.07;100.00;97912.44;5107213;28;20208;-72
2021/04/22 02:28:09;;;;;;;2.53;1.77;;;;;;;9.09;100.00;97910.16;5105581;28;20690;-72
2021/04/22 02:30:38;;;;;;;2.63;2.00;;;;;;;9.05;100.00;97909.25;5106867;28;20255;-73
2021/04/22 02:33:08;;;;;;;2.40;1.47;;;;;;;8.95;100.00;97915.13;5106804;28;20263;-73
2021/04/22 02:35:37;;;;;;;2.40;1.97;;;;;;;8.96;100.00;97901.03;5107201;28;20287;-73
2021/04/22 02:38:07;;;;;;;4.40;2.27;;;;;;;8.92;100.00;97902.03;5106857;28;20775;-73
2021/04/22 02:40:36;;;;;;;3.20;1.97;;;;;;;8.90;100.00;97909.81;5106938;28;20227;-73
2021/04/22 02:43:06;;;;;;;3.73;2.07;;;;;;;8.98;100.00;97912.50;5107166;28;20253;-73
2021/04/22 02:45:35;;;;;;;2.77;2.07;;;;;;;8.95;100.00;97913.19;5093140;28;20666;-73
2021/04/22 02:48:03;;;;;;;3.83;2.20;;;;;;;9.00;100.00;97917.66;5093029;28;20619;-72
2021/04/22 02:50:34;;;;;;;3.40;2.60;;;;;;;9.01;100.00;97913.78;5109632;28;20317;-73
2021/04/22 02:53:02;;;;;;;3.30;2.53;;;;;;;8.98;100.00;97920.75;5113297;28;20259;-73
2021/04/22 02:55:28;;;;;;;3.03;2.10;;;;;;;8.99;100.00;97916.06;5113253;28;20268;-73
2021/04/22 02:58:15;;;;;;;4.00;2.20;;;;;;;8.93;100.00;97928.41;5097216;28;20773;-73
2021/04/22 03:00:44;;;;;;;4.40;2.40;;;;;;;8.74;100.00;97930.78;5092937;28;20259;-73
2021/04/22 03:03:11;;;;;;;2.03;1.33;;;;;;;8.71;100.00;97934.16;5092644;28;20224;-73
2021/04/22 03:05:37;;;;;;;2.47;2.00;;;;;;;8.70;100.00;97929.81;5092808;28;20213;-73
2021/04/22 03:08:05;;;;;;;5.07;3.13;;;;;;;8.76;100.00;97936.72;5092476;28;20299;-73
2021/04/22 03:10:33;;;;;;;4.90;1.83;;;;;;;8.75;100.00;97932.38;5091337;28;20224;-73
2021/04/22 03:13:00;;;;;;;4.40;2.67;;;;;;;8.78;100.00;97928.94;5091345;28;20233;-73
2021/04/22 03:15:26;;;;;;;6.57;1.53;;;;;;;8.80;100.00;97934.94;5092854;28;20291;-73
2021/04/22 03:17:52;;;;;;;2.97;2.10;;;;;;;8.93;100.00;97934.72;5093117;28;20764;-73
2021/04/22 03:20:20;;;;;;;2.97;2.03;;;;;;;9.02;100.00;97934.66;5092579;28;20252;-73
2021/04/22 03:22:47;;;;;;;2.67;1.73;;;;;;;8.95;100.00;97928.88;5093020;28;20204;-73
2021/04/22 03:25:15;;;;;;;1.97;1.73;;;;;;;9.03;100.00;97933.53;5092662;28;20236;-73
2021/04/22 03:27:41;;;;;;;3.63;1.80;;;;;;;8.99;100.00;97925.13;5091259;28;20720;-73
2021/04/22 03:30:10;;;;;;;3.03;2.10;;;;;;;8.95;100.00;97923.38;5092003;28;20259;-73
2021/04/22 03:32:36;;;;;;;4.40;2.70;;;;;;;8.94;100.00;97925.31;5092221;28;20227;-73
2021/04/22 03:35:04;;;;;;;4.13;1.80;;;;;;;8.97;100.00;97929.34;5091607;28;20262;-72
2021/04/22 03:37:31;;;;;;;3.23;1.30;;;;;;;9.02;100.00;97942.91;5091710;28;20635;-72
2021/04/22 03:40:01;;;;;;;2.43;1.67;;;;;;;9.06;100.00;97932.88;5084054;28;20216;-73
2021/04/22 03:42:27;;;;;;;3.53;2.20;;;;;;;8.93;100.00;97936.66;5072904;28;20229;-72
2021/04/22 03:44:53;;;;;;;2.43;1.80;;;;;;;8.88;100.00;97943.16;5066992;28;20212;-73
2021/04/22 03:47:19;;;;;;;1.53;1.37;;;;;;;9.03;100.00;97950.06;5086901;28;20815;-73
2021/04/22 03:49:46;;;;;;;3.07;1.93;;;;;;;9.13;100.00;97946.91;5098350;28;20250;-73
2021/04/22 03:52:12;;;;;;;4.70;1.97;;;;;;;9.08;100.00;97945.16;5107943;27;20319;-73
2021/04/22 03:54:38;;;;;;;3.80;2.00;;;;;;;8.97;100.00;97954.13;5102679;28;20212;-73
2021/04/22 03:57:05;;;;;;;3.53;2.13;;;;;;;8.88;100.00;97943.16;5072806;28;20251;-73
2021/04/22 03:59:31;;;;;;;2.47;2.23;;;;;;;8.73;100.00;97951.16;5090853;28;20274;-73
2021/04/22 04:01:57;;;;;;;4.80;1.70;;;;;;;8.96;100.00;97955.25;5089459;28;20242;-73
2021/04/22 04:04:24;;;;;;;3.40;2.03;;;;;;;8.92;100.00;97965.31;5091605;28;20258;-73
2021/04/22 04:06:50;;;;;;;2.73;2.27;;;;;;;8.91;100.00;97958.19;5091266;28;20291;-73
2021/04/22 04:09:16;;;;;;;1.90;1.47;;;;;;;8.98;100.00;97964.78;5091127;28;20234;-73
2021/04/22 04:11:42;;;;;;;3.87;2.30;;;;;;;8.90;100.00;97973.09;5090258;28;20267;-73
2021/04/22 04:14:08;;;;;;;2.93;2.20;;;;;;;8.93;100.00;97972.44;5090181;28;20311;-73
2021/04/22 04:16:35;;;;;;;4.67;2.80;;;;;;;9.05;100.00;97976.09;5091268;28;20204;-72
2021/04/22 04:19:01;;;;;;;3.17;2.37;;;;;;;9.17;100.00;97980.91;5091180;28;20288;-73
2021/04/22 04:21:27;;;;;;;6.73;3.03;;;;;;;9.20;100.00;97983.78;5089943;28;20235;-73
2021/04/22 04:23:53;;;;;;;3.20;1.97;;;;;;;9.26;100.00;97976.16;5090079;28;20204;-73
2021/04/22 04:26:19;;;;;;;3.97;2.57;;;;;;;9.42;100.00;97976.38;5090741;28;20699;-73
2021/04/22 04:28:46;;;;;;;4.67;2.90;;;;;;;9.49;100.00;97980.22;5090990;28;20209;-73
2021/04/22 04:31:13;;;;;;;4.40;2.87;;;;;;;9.51;100.00;97977.94;5091170;28;20228;-73
2021/04/22 04:33:39;;;;;;;3.37;2.23;;;;;;;9.40;100.00;97982.22;5089414;28;20216;-73
2021/04/22 04:36:05;;;;;;;3.50;2.37;;;;;;;9.45;100.00;97975.72;5090780;28;20295;-73
2021/04/22 04:38:31;;;;;;;4.93;2.57;;;;;;;9.64;100.00;97985.13;5090659;28;20672;-73
2021/04/22 04:40:57;;;;;;;3.63;2.60;;;;;;;9.66;100.00;97984.78;5091017;28;20786;-74
2021/04/22 04:43:23;;;;;;;7.53;3.63;;;;;;;9.72;100.00;97987.03;5091013;28;20204;-73
2021/04/22 04:45:49;;;;;;;4.23;2.03;;;;;;;9.45;100.00;97987.53;5090777;28;20245;-73
2021/04/22 04:48:15;;;;;;;3.43;1.97;;;;;;;9.37;100.00;97993.91;5091172;28;20262;-73
2021/04/22 04:50:41;;;;;;;4.23;2.67;;;;;;;9.44;100.00;98002.44;5110113;28;20597;-74
2021/04/22 04:53:07;;;;;;;2.87;2.10;;;;;;;9.55;100.00;97995.41;5110803;28;20570;-73
2021/04/22 04:55:33;;;;;;;4.47;2.53;;;;;;;9.77;100.00;97999.78;5105090;28;20239;-74
2021/04/22 04:57:59;;;;;;;3.37;2.27;;;;;;;9.90;100.00;97994.03;5090673;28;20208;-74
2021/04/22 05:00:26;;;;;;;4.37;2.90;;;;;;;10.04;100.00;97994.56;5090293;28;20263;-73
2021/04/22 05:02:52;;;;;;;5.40;3.03;;;;;;;10.04;100.00;97991.78;5090519;28;20284;-74
2021/04/22 05:05:18;;;;;;;5.67;2.90;;;;;;;10.27;100.00;97997.81;5090276;28;20215;-74
2021/04/22 05:07:44;;;;;;;3.40;2.43;;;;;;;10.49;100.00;97993.84;5090207;28;20809;-74
2021/04/22 05:10:11;;;;;;;5.10;2.83;;;;;;;10.67;100.00;98001.63;5089899;28;20307;-74
2021/04/22 05:12:37;;;;;;;6.47;3.20;;;;;;;10.85;100.00;98004.97;5090278;28;20739;-73
2021/04/22 05:15:05;;;;;;;3.80;2.67;;;;;;;11.25;100.00;97997.66;5088418;28;20660;-74
2021/04/22 05:17:31;;;;;;;3.47;2.57;;;;;;;11.13;100.00;98006.72;5089994;28;20200;-74
2021/04/22 05:19:57;;;;;;;4.17;2.67;;;;;;;11.02;100.00;97997.28;5089553;28;20755;-73
2021/04/22 05:22:24;;;;;;;6.27;3.47;;;;;;;10.97;100.00;97996.69;5089648;28;20204;-73
2021/04/22 05:24:50;;;;;;;8.50;3.00;;;;;;;11.04;100.00;97996.94;5089066;28;20236;-74
2021/04/22 05:27:16;;;;;;;5.90;2.37;;;;;;;11.62;100.00;97999.25;5085374;28;20838;-74
2021/04/22 05:29:42;;;;;;;3.20;2.13;;;;;;;12.83;100.00;97998.84;5089669;28;20221;-74
2021/04/22 05:32:09;;;;;;;4.67;2.70;;;;;;;12.55;100.00;97995.31;5089865;28;20239;-74
2021/04/22 05:34:35;;;;;;;3.23;2.37;;;;;;;12.94;100.00;97991.59;5088752;28;20211;-74
2021/04/22 05:37:01;;;;;;;2.07;1.70;;;;;;;12.54;100.00;97990.91;5071949;28;20570;-75
2021/04/22 05:39:27;;;;;;;3.60;2.73;;;;;;;12.82;100.00;97995.28;5089739;28;20232;-74
2021/04/22 05:41:55;;;;;;;7.00;2.40;;;;;;;12.45;100.00;97995.81;5090024;28;20220;-75
2021/04/22 05:44:22;;;;;;;4.07;2.77;;;;;;;12.38;100.00;98007.50;5090194;28;20205;-74
2021/04/22 05:46:48;;;;;;;3.80;2.20;;;;;;;13.01;100.00;98012.00;5075359;28;20307;-75
2021/04/22 05:49:14;;;;;;;10.03;2.90;;;;;;;12.96;100.00;98011.44;5080089;28;20205;-75
2021/04/22 05:51:42;;;;;;;4.13;2.63;;;;;;;13.18;100.00;98017.22;5083849;28;20220;-74
2021/04/22 05:54:09;;;;;;;3.17;2.37;;;;;;;13.23;100.00;98022.50;5089893;28;20389;-74
2021/04/22 05:56:36;;;;;;;3.90;2.47;;;;;;;13.10;100.00;98018.19;5090366;28;20249;-74
2021/04/22 05:59:03;;;;;;;6.10;2.57;;;;;;;12.48;100.00;98028.34;5089585;28;20255;-74
2021/04/22 06:01:29;;;;;;;7.97;3.40;;;;;;;12.03;100.00;98034.94;5089439;28;20257;-74
2021/04/22 06:03:55;;;;;;;3.23;2.03;;;;;;;12.09;100.00;98041.03;5089802;28;20200;-74
2021/04/22 06:06:21;;;;;;;4.47;2.30;;;;;;;12.11;100.00;98053.34;5089805;28;20208;-74
2021/04/22 06:08:49;;;;;;;6.10;2.77;;;;;;;11.95;100.00;98055.22;5088932;28;20292;-74
2021/04/22 06:11:15;;;;;;;4.60;2.37;;;;;;;11.36;100.00;98059.59;5087882;28;20822;-74
2021/04/22 06:13:41;;;;;;;4.23;2.60;;;;;;;11.78;100.00;98055.47;5089399;28;20604;-74
2021/04/22 06:16:07;;;;;;;3.67;2.33;;;;;;;12.03;100.00;98068.13;5071583;28;20273;-74
2021/04/22 06:18:34;;;;;;;9.87;2.40;;;;;;;11.82;100.00;98074.94;5074414;28;20324;-74
2021/04/22 06:21:01;;;;;;;3.50;1.97;;;;;;;12.43;100.00;98059.81;5089296;28;20262;-76
2021/04/22 06:23:27;;;;;;;5.73;2.10;;;;;;;12.15;100.00;98067.28;5087546;28;20296;-76
2021/04/22 06:25:56;;;;;;;5.50;1.80;;;;;;;12.13;100.00;98067.63;5088446;28;20265;-76
2021/04/22 06:28:23;;;;;;;8.33;2.30;;;;;;;12.50;100.00;98070.31;5070151;28;20211;-75
2021/04/22 06:30:49;;;;;;;1.73;1.33;;;;;;;12.35;100.00;98073.81;5088238;28;20246;-76
2021/04/22 06:33:17;;;;;;;1.93;1.60;;;;;;;11.94;100.00;98072.97;5088339;28;20256;-76
2021/04/22 06:35:43;;;;;;;2.77;2.00;;;;;;;11.87;100.00;98070.00;5089288;28;20205;-75
2021/04/22 06:38:09;;;;;;;2.30;1.10;;;;;;;12.90;100.00;98074.63;5088046;28;20738;-76
2021/04/22 06:40:36;;;;;;;0.80;0.80;;;;;;;14.81;100.00;98069.75;5086592;28;20252;-77
2021/04/22 06:43:08;;;;;;;3.63;2.10;;;;;;;15.94;100.00;98069.84;5089099;28;20292;-76
2021/04/22 06:45:36;;;;;;;2.03;1.37;;;;;;;16.62;100.00;98068.84;5088233;28;20204;-74
2021/04/22 06:48:03;;;;;;;3.60;1.40;;;;;;;15.15;100.00;98073.56;5088183;28;20209;-74
2021/04/22 06:50:29;;;;;;;4.67;1.63;;;;;;;14.10;100.00;98086.03;5088020;28;20232;-73
2021/04/22 06:52:55;;;;;;;7.57;1.60;;;;;;;12.82;100.00;98091.41;5088999;28;20252;-72
2021/04/22 06:55:23;;;;;;;2.23;1.57;;;;;;;12.50;100.00;98098.00;5088148;28;20254;-73
2021/04/22 06:57:57;;;;;;;2.80;1.40;;;;;;;12.89;100.00;98097.13;5086146;28;20369;-75
2021/04/22 07:00:25;;;;;;;3.27;1.43;;;;;;;13.46;100.00;98100.31;5089470;28;20228;-77
2021/04/22 07:02:51;;;;;;;1.80;1.37;;;;;;;15.72;100.00;98092.94;5070679;28;20213;-77
2021/04/22 07:05:19;;;;;;;2.43;1.50;;;;;;;15.48;100.00;98098.84;5089203;28;20227;-78
2021/04/22 07:07:46;;;;;;;2.70;1.07;;;;;;;14.54;100.00;98103.31;5088550;28;20211;-77
2021/04/22 07:10:14;;;;;;;2.10;1.00;;;;;;;12.80;100.00;98118.63;5085877;28;20274;-76
2021/04/22 07:12:40;;;;;;;3.10;1.33;;;;;;;12.81;100.00;98114.72;5089034;28;20263;-77
2021/04/22 07:15:08;;;;;;;2.03;1.43;;;;;;;12.29;100.00;98125.00;5087979;28;20201;-74
2021/04/22 07:17:35;;;;;;;1.37;0.90;;;;;;;12.37;100.00;98124.09;5087990;28;20215;-75
2021/04/22 07:20:04;;;;;;;5.53;1.43;;;;;;;13.56;100.00;98127.50;5087218;28;20315;-72
2021/04/22 07:22:36;;;;;;;3.07;1.00;;;;;;;13.86;100.00;98134.22;5087661;28;20238;-72
2021/04/22 07:25:03;;;;;;;6.93;1.63;;;;;;;13.67;100.00;98125.78;5087734;28;20618;-72
2021/04/22 07:27:29;;;;;;;0.87;0.80;;;;;;;13.09;100.00;98126.63;5086665;28;20777;-72
2021/04/22 07:29:55;;;;;;;1.37;1.20;;;;;;;12.82;100.00;98135.72;5086535;28;20221;-72
2021/04/22 07:32:21;;;;;;;0.83;0.83;;;;;;;12.70;100.00;98133.00;5086114;28;20212;-73
2021/04/22 07:34:48;;;;;;;2.97;1.40;;;;;;;13.56;100.00;98137.78;5085774;28;20705;-72
2021/04/22 07:37:17;;;;;;;3.53;1.17;;;;;;;14.90;100.00;98134.25;5087515;28;20658;-74
2021/04/22 07:39:44;;;;;;;1.40;1.00;;;;;;;17.01;100.00;98132.25;5085982;28;20315;-73
2021/04/22 07:42:10;;;;;;;1.80;1.27;;;;;;;18.12;100.00;98131.03;5087217;28;20228;-71
2021/04/22 07:44:37;;;;;;;4.10;1.67;;;;;;;16.16;100.00;98141.38;5086929;28;20228;-71
2021/04/22 07:47:04;;;;;;;1.20;1.10;;;;;;;17.36;100.00;98154.19;5086916;28;20226;-70
2021/04/22 07:49:50;;;;;;;2.53;1.20;;;;;;;17.71;100.00;98151.00;5099068;28;20661;-70
2021/04/22 07:52:16;;;;;;;2.17;1.27;;;;;;;16.81;100.00;98150.31;5106253;28;20207;-70
2021/04/22 07:54:43;;;;;;;2.67;1.20;;;;;;;17.36;100.00;98147.78;5107463;28;20204;-70
2021/04/22 07:57:09;;;;;;;1.88;1.30;;;;;;;16.70;100.00;98154.94;5107576;28;20253;-70
2021/04/22 07:59:36;;;;;;;1.40;1.30;;;;;;;16.96;100.00;98154.91;5107842;28;20203;-70
2021/04/22 08:02:03;;;;;;;1.48;1.20;;;;;;;16.03;100.00;98161.44;5100182;28;20341;-72
2021/04/22 08:04:30;;;;;;;3.53;1.17;;;;;;;15.48;100.00;98173.13;5086584;28;20293;-70
2021/04/22 08:06:56;;;;;;;2.70;1.40;;;;;;;14.95;100.00;98169.25;5090567;28;20231;-71
2021/04/22 08:09:23;;;;;;;3.63;1.45;;;;;;;15.55;100.00;98165.75;5088296;28;20223;-70
2021/04/22 08:11:49;;;;;;;1.88;1.30;;;;;;;16.17;100.00;98165.25;5089575;28;20206;-70
2021/04/22 08:14:15;;;;;;;1.67;1.02;;;;;;;16.15;100.00;98167.59;5089768;28;20208;-71
2021/04/22 08:16:41;;;;;;;1.33;0.88;;;;;;;16.22;100.00;98162.13;5091096;28;20212;-70
2021/04/22 08:19:07;;;;;;;2.17;1.15;;;;;;;16.67;100.00;98161.28;5091192;28;20317;-70
2021/04/22 08:21:33;;;;;;;2.47;1.33;;;;;;;17.43;100.00;98175.78;5091202;28;20264;-71
2021/04/22 08:23:59;;;;;;;3.30;1.70;;;;;;;17.28;100.00;98176.81;5090877;28;20750;-71
2021/04/22 08:26:26;;;;;;;1.92;1.40;;;;;;;15.95;100.00;98191.13;5091183;28;20235;-71
2021/04/22 08:28:52;;;;;;;2.42;2.13;;;;;;;16.16;100.00;98180.38;5090819;28;20685;-70
2021/04/22 08:31:24;;;;;;;3.90;1.95;;;;;;;16.45;100.00;98180.78;5091075;28;20757;-71
2021/04/22 08:33:58;;;;;;;2.10;1.40;;;;;;;18.03;100.00;98178.03;5091087;28;20629;-71
2021/04/22 08:36:25;;;;;;;3.13;1.80;;;;;;;17.20;100.00;98179.50;5090878;28;20204;-71
2021/04/22 08:38:51;;;;;;;2.63;1.30;;;;;;;17.10;100.00;98182.16;5091121;28;20208;-71
2021/04/22 08:41:18;;;;;;;3.88;1.65;;;;;;;17.56;100.00;98183.53;5090702;28;20221;-71
2021/04/22 08:43:45;;;;;;;3.28;1.63;;;;;;;18.74;100.00;98178.63;5091279;28;20216;-71
2021/04/22 08:46:11;;;;;;;2.40;1.52;;;;;;;19.62;100.00;98185.44;5090361;28;20204;-71
2021/04/22 08:48:42;;;;;;;1.92;1.20;;;;;;;17.91;100.00;98183.09;5079185;28;20971;-72
2021/04/22 08:51:10;;;;;;;2.53;1.45;;;;;;;17.39;100.00;98184.09;5083235;28;20247;-72
2021/04/22 08:53:39;;;;;;;1.98;1.25;;;;;;;16.77;100.00;98190.47;5086136;28;20200;-72
2021/04/22 08:56:07;;;;;;;1.58;1.20;;;;;;;16.19;100.00;98179.59;5086856;28;20215;-71
2021/04/22 08:58:33;;;;;;;2.40;1.70;;;;;;;17.11;100.00;98180.97;5084129;28;20300;-72
2021/04/22 09:01:07;;;;;;;3.45;1.70;;;;;;;16.39;100.00;98177.53;5085564;28;20657;-72
2021/04/22 09:03:34;;;;;;;1.80;1.38;;;;;;;15.58;100.00;98195.63;5084404;28;20232;-74
2021/04/22 09:06:01;;;;;;;2.22;1.70;;;;;;;17.27;100.00;98192.72;5086529;28;20220;-74
2021/04/22 09:08:48;;;;;;;2.35;1.73;;;;;;;19.57;100.00;98187.81;5085212;28;20197;-71
2021/04/22 09:11:21;;;;;;;2.53;1.80;;;;;;;18.48;100.00;98201.19;5084968;28;20254;-71
2021/04/22 09:13:47;;;;;;;2.65;1.65;;;;;;;17.98;100.00;98203.53;5083110;28;20229;-71
2021/04/22 09:16:21;;;;;;;1.10;0.95;;;;;;;19.70;100.00;98192.69;5084525;28;20295;-71
2021/04/22 09:18:53;;;;;;;4.10;1.70;;;;;;;20.42;100.00;98195.19;5085005;28;20228;-71
2021/04/22 09:21:29;;;;;;;2.75;1.65;;;;;;;20.32;100.00;98196.00;5085510;28;20305;-71
2021/04/22 09:23:55;;;;;;;3.25;1.50;;;;;;;20.23;100.00;98186.38;5083526;28;20230;-72
2021/04/22 09:26:22;;;;;;;3.78;1.80;;;;;;;20.15;100.00;98188.34;5083734;28;20206;-71
2021/04/22 09:28:48;;;;;;;2.38;1.58;;;;;;;19.74;100.00;98187.09;5085029;28;20197;-70
2021/04/22 09:31:26;;;;;;;2.13;1.40;;;;;;;21.12;100.00;98189.50;5084947;28;20362;-70
2021/04/22 09:34:11;;;;;;;3.15;1.35;;;;;;;21.62;96.55;98192.91;5066812;28;20208;-70
2021/04/22 09:36:39;;;;;;;1.60;1.10;;;;;;;21.60;93.77;98188.91;5084204;28;20239;-70
2021/04/22 09:39:05;;;;;;;1.58;1.10;;;;;;;21.51;87.29;98172.53;5084618;28;20277;-71
2021/04/22 09:41:34;;;;;;;3.10;1.40;;;;;;;20.85;92.56;98185.53;5083702;28;20243;-71
2021/04/22 09:44:07;;;;;;;2.58;1.27;;;;;;;21.14;91.22;98189.09;5083268;28;20235;-71
2021/04/22 09:46:33;;;;;;;5.32;1.67;;;;;;;21.34;85.59;98190.22;5083629;28;20292;-72
2021/04/22 09:49:07;;;;;;;12.32;2.00;;;;;;;20.83;87.51;98190.75;5088730;28;20296;-72
2021/04/22 09:51:34;;;;;;;1.55;1.10;;;;;;;20.86;88.47;98189.13;5104037;28;20319;-73
2021/04/22 09:54:12;;;;;;;2.28;1.25;;;;;;;21.64;83.67;98179.25;5106735;28;20253;-76
2021/04/22 09:56:53;;;;;;;1.35;1.02;;;;;;;21.63;83.07;98174.84;5111631;28;20200;-77
2021/04/22 09:59:25;;;;;;;1.85;0.90;;;;;;;21.25;79.79;98175.84;5113921;28;20192;-76
2021/04/22 10:02:06;;;;;;;2.50;1.10;;;;;;;20.92;74.21;98173.50;5107210;28;20274;-77
2021/04/22 10:04:39;;;;;;;0.80;0.70;;;;;;;21.55;75.02;98167.66;5089443;28;20234;-73
2021/04/22 10:07:18;;;;;;;2.30;1.23;;;;;;;21.41;78.49;98166.94;5089395;28;20250;-72
2021/04/22 10:09:44;;;;;;;1.70;1.27;;;;;;;21.05;70.67;98174.69;5087695;28;20252;-73
2021/04/22 10:12:29;;;;;;;1.08;0.93;;;;;;;20.41;72.98;98170.38;5088533;28;20250;-71
2021/04/22 10:14:55;;;;;;;2.65;0.93;;;;;;;20.01;71.25;98177.94;5088660;28;20200;-74
2021/04/22 10:17:25;;;;;;;1.80;1.38;;;;;;;20.22;76.66;98176.38;5089076;28;20563;-73
2021/04/22 10:20:02;;;;;;;1.77;1.15;;;;;;;19.24;83.37;98174.88;5088858;28;20224;-73
2021/04/22 10:22:29;;;;;;;1.85;1.08;;;;;;;19.40;85.61;98183.78;5087683;28;20793;-74
2021/04/22 10:25:00;;;;;;;3.47;1.40;;;;;;;19.32;86.73;98170.97;5088144;28;20647;-73
2021/04/22 10:27:28;;;;;;;1.65;1.08;;;;;;;18.71;95.33;98166.22;5087762;28;20299;-73
2021/04/22 10:29:56;;;;;;;2.22;1.13;;;;;;;19.31;98.40;98169.34;5070186;28;20231;-74
2021/04/22 10:32:22;;;;;;;1.77;1.10;;;;;;;19.36;85.30;98162.56;5087966;28;20240;-76
2021/04/22 10:34:51;;;;;;;2.25;1.08;;;;;;;19.47;82.77;98161.41;5088979;28;20591;-75
2021/04/22 10:37:23;;;;;;;1.50;1.02;;;;;;;19.02;87.12;98171.19;5087110;28;20201;-69
2021/04/22 10:39:50;;;;;;;5.05;1.27;;;;;;;18.64;96.14;98162.56;5086517;28;20221;-72
2021/04/22 10:42:17;;;;;;;1.80;0.80;;;;;;;18.94;98.84;98166.75;5087580;28;20787;-69
2021/04/22 10:44:48;;;;;;;1.70;1.20;;;;;;;19.06;94.28;98151.63;5088621;28;20236;-73
2021/04/22 10:47:19;;;;;;;1.42;1.15;;;;;;;18.74;89.44;98157.03;5090126;28;20212;-74
2021/04/22 10:49:46;;;;;;;1.95;1.15;;;;;;;18.88;88.83;98153.53;5101458;28;20254;-73
2021/04/22 10:52:14;;;;;;;1.10;0.82;;;;;;;18.14;89.67;98159.38;5110540;27;20710;-74
2021/04/22 10:54:42;;;;;;;2.60;1.08;;;;;;;17.75;97.38;98163.81;5109839;28;20264;-72
2021/04/22 10:57:12;;;;;;;7.55;1.33;;;;;;;18.38;91.38;98155.16;5111306;28;20269;-75
2021/04/22 10:59:38;;;;;;;3.05;1.10;;;;;;;18.53;96.83;98156.09;5111442;28;20603;-75
2021/04/22 11:02:23;;;;;;;2.10;1.38;;;;;;;18.66;87.94;98154.59;5101237;28;20212;-75
2021/04/22 11:04:50;;;;;;;2.22;1.60;;;;;;;18.24;78.68;98160.66;5071800;28;20716;-74
2021/04/22 11:07:24;;;;;;;2.83;1.27;;;;;;;18.39;76.40;98151.22;5090303;28;20623;-74
2021/04/22 11:09:55;;;;;;;1.00;0.82;;;;;;;18.49;76.75;98150.50;5089346;28;20426;-74
2021/04/22 11:12:31;;;;;;;1.48;1.00;;;;;;;17.91;84.40;98150.41;5093548;28;20262;-76
2021/04/22 11:14:58;;;;;;;2.22;0.93;;;;;;;18.25;82.64;98153.09;5093006;28;20196;-75
2021/04/22 11:17:38;;;;;;;1.00;0.80;;;;;;;18.43;88.88;98156.84;5089470;28;20273;-76
2021/04/22 11:20:17;;;;;;;1.30;1.00;;;;;;;18.51;89.61;98152.91;5092986;28;20780;-74
2021/04/22 11:22:45;;;;;;;3.88;1.40;;;;;;;18.27;89.40;98153.47;5091756;28;20208;-74
2021/04/22 11:25:17;;;;;;;0.90;0.73;;;;;;;18.18;86.76;98142.66;5089112;28;20201;-74
2021/04/22 11:27:48;;;;;;;3.00;1.08;;;;;;;17.55;79.84;98150.44;5088618;28;20244;-76
2021/04/22 11:30:30;;;;;;;1.40;0.93;;;;;;;18.13;88.47;98137.41;5089268;28;20235;-77
2021/04/22 11:32:59;;;;;;;3.05;1.13;;;;;;;18.53;75.95;98142.13;5088569;28;20270;-75
2021/04/22 11:35:28;;;;;;;2.05;0.90;;;;;;;18.73;77.32;98146.25;5071398;28;20946;-74
2021/04/22 11:37:59;;;;;;;2.33;0.88;;;;;;;17.97;70.72;98153.66;5089341;28;20269;-75
2021/04/22 11:40:34;;;;;;;3.13;1.27;;;;;;;17.69;67.13;98145.00;5087750;28;20220;-72
2021/04/22 11:43:01;;;;;;;3.22;0.82;;;;;;;18.36;78.32;98156.75;5076925;28;20209;-72
2021/04/22 11:45:32;;;;;;;1.80;1.00;;;;;;;18.65;79.37;98141.81;5068301;28;20221;-72
2021/04/22 11:48:08;;;;;;;1.67;1.08;;;;;;;17.70;65.23;98144.59;5067177;28;20201;-73
2021/04/22 11:50:46;;;;;;;1.45;0.85;;;;;;;17.83;67.75;98145.13;5105666;28;20216;-74
2021/04/22 11:53:13;;;;;;;3.42;1.13;;;;;;;17.88;73.57;98148.38;5090449;28;20230;-74
2021/04/22 11:55:46;;;;;;;1.65;0.55;;;;;;;17.98;67.01;98130.91;5108817;28;20250;-74
2021/04/22 11:58:16;;;;;;;1.45;0.98;;;;;;;17.99;71.32;98140.88;5108958;28;20227;-74
2021/04/22 12:00:50;;;;;;;1.13;0.80;;;;;;;18.42;70.27;98133.69;5109116;28;20329;-74
2021/04/22 12:03:21;;;;;;;1.67;0.70;;;;;;;18.20;67.40;98132.69;5090751;28;20240;-74
2021/04/22 12:05:50;;;;;;;3.05;1.33;;;;;;;17.95;72.87;98137.28;5087189;28;20232;-75
2021/04/22 12:08:16;;;;;;;1.25;0.80;;;;;;;18.41;77.54;98143.22;5087228;28;20290;-74